Time;durP1;ratioP1;P1;durP2;ratioP2;P2;SDS_P1;SDS_P2;PMS_P1;PMS_P2;Temp;Humidity;BMP_temperature;BMP_pressure;BME280_temperature;BME280_humidity;BME280_pressure;Samples;Min_cycle;Max_cycle;Signal;HPM_P1;HPM_P2
2023/08/14 00:01:57;;;;;;;0.00;0.00;;;18.10;99.90;;;;;;5036121;28;20042;-71
2023/08/14 00:04:23;;;;;;;0.10;0.10;;;18.30;99.90;;;;;;5051903;28;20017;-74
2023/08/14 00:06:49;;;;;;;0.00;0.00;;;18.40;99.90;;;;;;5037112;28;20025;-70
2023/08/14 00:09:14;;;;;;;0.05;0.05;;;18.50;99.90;;;;;;5052617;28;20424;-71
2023/08/14 00:11:40;;;;;;;0.20;0.20;;;18.60;99.90;;;;;;5052322;28;20029;-73
2023/08/14 00:14:06;;;;;;;0.00;0.00;;;18.50;99.90;;;;;;5052659;28;20017;-71
2023/08/14 00:16:32;;;;;;;0.00;0.00;;;18.50;99.90;;;;;;5055009;28;20393;-71
2023/08/14 00:18:57;;;;;;;0.00;0.00;;;18.30;99.90;;;;;;5054809;28;20021;-71
2023/08/14 00:21:23;;;;;;;0.00;0.00;;;18.20;99.90;;;;;;5054682;28;20028;-71
2023/08/14 00:23:49;;;;;;;0.00;0.00;;;18.20;99.90;;;;;;5054844;28;20035;-71
2023/08/14 00:26:15;;;;;;;0.00;0.00;;;18.20;99.90;;;;;;5037148;28;20103;-71
2023/08/14 00:28:41;;;;;;;0.00;0.00;;;18.00;99.90;;;;;;5054524;28;20036;-72
2023/08/14 00:31:07;;;;;;;0.00;0.00;;;17.90;99.90;;;;;;5037167;28;20048;-73
2023/08/14 00:33:33;;;;;;;0.00;0.00;;;17.90;99.90;;;;;;5036626;28;20052;-72
2023/08/14 00:36:00;;;;;;;0.00;0.00;;;17.90;99.90;;;;;;5036662;28;20033;-75
2023/08/14 00:38:26;;;;;;;0.00;0.00;;;18.00;99.90;;;;;;5054302;28;20025;-72
2023/08/14 00:40:52;;;;;;;0.00;0.00;;;18.10;99.90;;;;;;5036799;28;20025;-71
2023/08/14 00:43:22;;;;;;;0.00;0.00;;;18.00;99.90;;;;;;5036532;28;20016;-72
2023/08/14 00:45:51;;;;;;;0.00;0.00;;;18.10;99.90;;;;;;5036616;28;20497;-71
2023/08/14 00:48:17;;;;;;;0.00;0.00;;;18.10;99.90;;;;;;5054407;28;20040;-72
2023/08/14 00:50:44;;;;;;;0.00;0.00;;;17.80;99.90;;;;;;5036331;28;20048;-72
2023/08/14 00:53:10;;;;;;;0.10;0.10;;;17.70;99.90;;;;;;5036840;28;20033;-72
2023/08/14 00:55:36;;;;;;;0.00;0.00;;;17.70;99.90;;;;;;5036561;28;20039;-71
2023/08/14 00:58:02;;;;;;;0.00;0.00;;;17.70;99.90;;;;;;5036662;28;20485;-71
2023/08/14 01:00:29;;;;;;;0.00;0.00;;;17.70;99.90;;;;;;5053915;28;20025;-70
2023/08/14 01:02:55;;;;;;;0.40;0.40;;;17.80;99.90;;;;;;5036567;28;20021;-71
2023/08/14 01:05:23;;;;;;;0.00;0.00;;;17.90;99.90;;;;;;5036026;28;20568;-71
2023/08/14 01:07:49;;;;;;;0.00;0.00;;;18.10;99.90;;;;;;5053820;28;20480;-71
2023/08/14 01:10:15;;;;;;;0.00;0.00;;;18.00;99.90;;;;;;5036211;28;20047;-70
2023/08/14 01:13:10;;;;;;;0.00;0.00;;;18.20;99.90;;;;;;5035056;28;20385;-71
2023/08/14 01:15:44;;;;;;;0.00;0.00;;;18.10;99.90;;;;;;5021330;28;20397;-71
2023/08/14 01:18:17;;;;;;;0.00;0.00;;;17.80;99.90;;;;;;5031307;28;20036;-70
2023/08/14 01:20:51;;;;;;;0.00;0.00;;;17.60;99.90;;;;;;5035547;28;20115;-70
2023/08/14 01:23:30;;;;;;;0.00;0.00;;;17.60;99.90;;;;;;5053754;28;20136;-71
2023/08/14 01:25:56;;;;;;;0.00;0.00;;;17.60;99.90;;;;;;5036137;28;20112;-70
2023/08/14 01:28:22;;;;;;;0.10;0.10;;;17.60;99.90;;;;;;5035517;28;20029;-70
2023/08/14 01:30:48;;;;;;;0.10;0.10;;;17.80;99.90;;;;;;5053667;28;20031;-71
2023/08/14 01:33:14;;;;;;;0.00;0.00;;;17.60;99.90;;;;;;5035627;28;20029;-70
2023/08/14 01:35:47;;;;;;;0.00;0.00;;;17.60;99.90;;;;;;5035481;28;20111;-70
2023/08/14 01:38:36;;;;;;;0.35;0.35;;;17.60;99.90;;;;;;5035961;28;20083;-71
2023/08/14 01:41:10;;;;;;;0.00;0.00;;;17.60;99.90;;;;;;5041416;28;20107;-71
2023/08/14 01:43:52;;;;;;;0.00;0.00;;;17.50;99.90;;;;;;5026415;28;20120;-71
2023/08/14 01:46:19;;;;;;;0.10;0.10;;;17.50;99.90;;;;;;5046078;28;20032;-71
2023/08/14 01:48:49;;;;;;;0.00;0.00;;;17.40;99.90;;;;;;5034737;28;20021;-71
2023/08/14 01:51:16;;;;;;;0.00;0.00;;;17.30;99.90;;;;;;5035383;28;20044;-71
2023/08/14 01:53:42;;;;;;;0.00;0.00;;;17.20;99.90;;;;;;5035470;28;20033;-71
2023/08/14 01:56:08;;;;;;;0.00;0.00;;;17.20;99.90;;;;;;5019012;28;20132;-71
2023/08/14 01:58:33;;;;;;;0.00;0.00;;;17.60;99.90;;;;;;5035283;28;20500;-71
2023/08/14 02:01:01;;;;;;;0.00;0.00;;;17.50;99.90;;;;;;5035353;28;20629;-71
2023/08/14 02:03:27;;;;;;;0.00;0.00;;;17.50;99.90;;;;;;5052819;28;20029;-71
2023/08/14 02:05:55;;;;;;;0.00;0.00;;;17.20;99.90;;;;;;5033167;28;20021;-71
2023/08/14 02:08:21;;;;;;;0.00;0.00;;;17.30;99.90;;;;;;5034412;28;20128;-71
2023/08/14 02:10:46;;;;;;;0.00;0.00;;;17.20;99.90;;;;;;5042333;28;20021;-72
2023/08/14 02:13:13;;;;;;;0.00;0.00;;;17.20;99.90;;;;;;5034303;28;20108;-75
2023/08/14 02:15:39;;;;;;;0.98;0.98;;;17.30;99.90;;;;;;5038316;28;20485;-71
2023/08/14 02:18:04;;;;;;;0.00;0.00;;;17.30;99.90;;;;;;5049817;28;20029;-71
2023/08/14 02:20:30;;;;;;;0.00;0.00;;;17.30;99.90;;;;;;5034345;28;20385;-78
2023/08/14 02:22:57;;;;;;;0.10;0.10;;;17.50;99.90;;;;;;5033734;28;20068;-71
2023/08/14 02:25:23;;;;;;;0.00;0.00;;;17.40;99.90;;;;;;5033413;28;20053;-71
2023/08/14 02:27:48;;;;;;;0.00;0.00;;;17.60;99.90;;;;;;5029967;28;20031;-70
2023/08/14 02:30:14;;;;;;;0.00;0.00;;;17.60;99.90;;;;;;5046766;28;20037;-71
2023/08/14 02:32:40;;;;;;;0.00;0.00;;;17.40;99.90;;;;;;5030702;28;20108;-71
2023/08/14 02:35:06;;;;;;;0.00;0.00;;;17.40;99.90;;;;;;5043109;28;20477;-73
2023/08/14 02:37:32;;;;;;;0.00;0.00;;;17.30;99.90;;;;;;5036553;28;20022;-79
2023/08/14 02:39:57;;;;;;;0.03;0.03;;;17.20;99.90;;;;;;5038429;28;20059;-70
2023/08/14 02:42:23;;;;;;;0.00;0.00;;;17.20;99.90;;;;;;5016314;28;20098;-72
2023/08/14 02:44:50;;;;;;;0.03;0.03;;;17.20;99.90;;;;;;5032170;28;20551;-76
2023/08/14 02:47:17;;;;;;;0.00;0.00;;;17.10;99.90;;;;;;5021178;28;20032;-75
2023/08/14 02:49:43;;;;;;;0.00;0.00;;;17.20;99.90;;;;;;5033207;28;20040;-72
2023/08/14 02:52:10;;;;;;;0.00;0.00;;;17.00;99.90;;;;;;5033798;28;20358;-74
2023/08/14 02:54:36;;;;;;;0.00;0.00;;;16.90;99.90;;;;;;5033500;28;20044;-75
2023/08/14 02:57:02;;;;;;;0.00;0.00;;;16.90;99.90;;;;;;5025422;28;20037;-72
2023/08/14 02:59:28;;;;;;;0.00;0.00;;;17.00;99.90;;;;;;5046032;28;20032;-72
2023/08/14 03:01:54;;;;;;;0.10;0.10;;;17.10;99.90;;;;;;5033838;28;20408;-73
2023/08/14 03:04:20;;;;;;;0.00;0.00;;;17.10;99.90;;;;;;5030772;28;20108;-74
2023/08/14 03:06:46;;;;;;;0.00;0.00;;;17.00;99.90;;;;;;5032747;28;20025;-72
2023/08/14 03:09:11;;;;;;;0.10;0.10;;;17.10;99.90;;;;;;5039580;28;20544;-73
2023/08/14 03:11:37;;;;;;;0.10;0.10;;;17.00;99.90;;;;;;5034827;28;20017;-73
2023/08/14 03:14:04;;;;;;;0.00;0.00;;;17.10;99.90;;;;;;5017242;28;20033;-73
2023/08/14 03:16:30;;;;;;;0.00;0.00;;;17.10;99.90;;;;;;5014522;28;20032;-78
2023/08/14 03:18:57;;;;;;;0.00;0.00;;;17.20;99.90;;;;;;5045374;28;20033;-72
2023/08/14 03:21:22;;;;;;;0.00;0.00;;;17.20;99.90;;;;;;5041067;28;20497;-72
2023/08/14 03:23:49;;;;;;;0.00;0.00;;;17.20;99.90;;;;;;5051911;28;20083;-73
2023/08/14 03:26:15;;;;;;;0.00;0.00;;;17.20;99.90;;;;;;5033146;28;20025;-73
2023/08/14 03:28:41;;;;;;;0.90;0.90;;;17.10;99.90;;;;;;5017159;28;20402;-72
2023/08/14 03:31:07;;;;;;;0.00;0.00;;;17.10;99.90;;;;;;5034360;28;20028;-72
2023/08/14 03:33:33;;;;;;;0.00;0.00;;;17.20;99.90;;;;;;5034137;28;20031;-72
2023/08/14 03:36:00;;;;;;;0.00;0.00;;;17.20;99.90;;;;;;5054061;28;20422;-76
2023/08/14 03:38:25;;;;;;;0.00;0.00;;;17.30;99.90;;;;;;5055438;28;20032;-73
2023/08/14 03:40:51;;;;;;;0.00;0.00;;;17.20;99.90;;;;;;5037884;28;20048;-73
2023/08/14 03:43:17;;;;;;;0.05;0.05;;;17.10;99.90;;;;;;5037537;28;20385;-79
2023/08/14 03:45:45;;;;;;;0.00;0.00;;;16.90;99.90;;;;;;5055873;28;20029;-75
2023/08/14 03:48:10;;;;;;;0.00;0.00;;;17.10;99.90;;;;;;5037588;28;20386;-72
2023/08/14 03:50:36;;;;;;;0.00;0.00;;;17.10;99.90;;;;;;5037971;28;20028;-72
2023/08/14 03:53:02;;;;;;;0.00;0.00;;;16.90;99.90;;;;;;5055543;28;20037;-71
2023/08/14 03:55:28;;;;;;;0.00;0.00;;;16.70;99.90;;;;;;5037854;28;20028;-72
2023/08/14 03:57:57;;;;;;;0.00;0.00;;;16.70;99.90;;;;;;5055533;28;20060;-72
2023/08/14 04:00:23;;;;;;;0.00;0.00;;;16.80;99.90;;;;;;5037475;28;20450;-71
2023/08/14 04:02:49;;;;;;;0.10;0.10;;;16.80;99.90;;;;;;5055341;28;20094;-72
2023/08/14 04:05:14;;;;;;;0.00;0.00;;;16.90;99.90;;;;;;5055482;28;20477;-71
2023/08/14 04:07:40;;;;;;;0.00;0.00;;;17.00;99.90;;;;;;5054877;28;20087;-72
2023/08/14 04:10:06;;;;;;;0.00;0.00;;;17.00;99.90;;;;;;5037472;28;20087;-72
2023/08/14 04:12:32;;;;;;;0.00;0.00;;;17.10;99.90;;;;;;5037015;28;20021;-71
2023/08/14 04:15:12;;;;;;;0.03;0.03;;;17.10;99.90;;;;;;5037091;28;20071;-71
2023/08/14 04:17:38;;;;;;;0.00;0.00;;;17.10;99.90;;;;;;5020740;28;20017;-72
2023/08/14 04:20:05;;;;;;;0.00;0.00;;;17.00;99.90;;;;;;5054934;28;20482;-71
2023/08/14 04:22:30;;;;;;;0.00;0.00;;;16.90;99.90;;;;;;5038303;28;20488;-70
2023/08/14 04:24:56;;;;;;;0.22;0.22;;;16.70;99.90;;;;;;5036166;28;20129;-71
2023/08/14 04:27:22;;;;;;;0.65;0.45;;;16.60;99.90;;;;;;5036488;28;20043;-70
2023/08/14 04:29:48;;;;;;;0.00;0.00;;;16.60;99.90;;;;;;5036962;28;20048;-71
2023/08/14 04:32:14;;;;;;;0.00;0.00;;;16.60;99.90;;;;;;5054954;28;20059;-72
2023/08/14 04:34:39;;;;;;;0.00;0.00;;;16.70;99.90;;;;;;5036845;28;20033;-72
2023/08/14 04:37:06;;;;;;;0.00;0.00;;;16.70;99.90;;;;;;5036814;28;20029;-72
2023/08/14 04:39:33;;;;;;;0.00;0.00;;;16.70;99.90;;;;;;5036727;28;20163;-72
2023/08/14 04:42:00;;;;;;;0.00;0.00;;;16.80;99.90;;;;;;5036338;28;20485;-72
2023/08/14 04:44:27;;;;;;;0.00;0.00;;;16.90;99.90;;;;;;5036822;28;20029;-72
2023/08/14 04:46:53;;;;;;;0.00;0.00;;;17.00;99.90;;;;;;5054057;28;20018;-71
2023/08/14 04:49:19;;;;;;;0.00;0.00;;;17.10;99.90;;;;;;5036764;28;20059;-72
2023/08/14 04:51:45;;;;;;;0.00;0.00;;;17.30;99.90;;;;;;5036304;28;20036;-72
2023/08/14 04:54:11;;;;;;;0.00;0.00;;;17.50;99.90;;;;;;5036626;28;20037;-72
2023/08/14 04:56:36;;;;;;;0.00;0.00;;;17.40;99.90;;;;;;5036125;28;20132;-73
2023/08/14 04:59:03;;;;;;;0.00;0.00;;;17.40;99.90;;;;;;5036507;28;20025;-72
2023/08/14 05:01:29;;;;;;;0.05;0.05;;;17.40;99.90;;;;;;5025560;28;20030;-72
2023/08/14 05:03:57;;;;;;;0.00;0.00;;;17.50;99.90;;;;;;5049368;28;20051;-72
2023/08/14 05:06:24;;;;;;;0.00;0.00;;;17.50;99.90;;;;;;5035658;28;20397;-73
2023/08/14 05:08:50;;;;;;;0.08;0.08;;;17.60;99.90;;;;;;5036186;28;20048;-72
2023/08/14 05:11:15;;;;;;;0.03;0.03;;;17.60;99.90;;;;;;5035804;28;20087;-72
2023/08/14 05:13:44;;;;;;;0.00;0.00;;;17.50;99.90;;;;;;5036155;28;20040;-72
2023/08/14 05:16:11;;;;;;;0.38;0.38;;;17.70;99.90;;;;;;5035870;28;20028;-72
2023/08/14 05:18:38;;;;;;;0.00;0.00;;;17.70;99.90;;;;;;5035889;28;20477;-72
2023/08/14 05:21:04;;;;;;;0.00;0.00;;;17.80;99.90;;;;;;5019105;28;20028;-72
2023/08/14 05:23:30;;;;;;;0.00;0.00;;;17.80;99.90;;;;;;5052473;28;20036;-72
2023/08/14 05:25:56;;;;;;;0.73;0.73;;;18.00;99.90;;;;;;5035146;28;20151;-72
2023/08/14 05:28:21;;;;;;;0.00;0.00;;;17.90;99.90;;;;;;5053748;28;20044;-74
2023/08/14 05:30:47;;;;;;;0.10;0.10;;;18.00;99.90;;;;;;5053661;28;20033;-73
2023/08/14 05:33:13;;;;;;;0.00;0.00;;;17.90;99.90;;;;;;5053570;28;20025;-71
2023/08/14 05:35:39;;;;;;;0.00;0.00;;;18.00;99.90;;;;;;5053764;28;20385;-72
2023/08/14 05:38:06;;;;;;;0.00;0.00;;;18.20;99.90;;;;;;5052872;28;20086;-72
2023/08/14 05:40:32;;;;;;;0.00;0.00;;;18.40;99.90;;;;;;5019105;28;20029;-73
2023/08/14 05:43:09;;;;;;;0.10;0.10;;;18.30;99.90;;;;;;5053472;28;20035;-72
2023/08/14 05:45:42;;;;;;;0.00;0.00;;;18.40;99.90;;;;;;5053467;28;20489;-72
2023/08/14 05:48:09;;;;;;;0.00;0.00;;;18.40;99.90;;;;;;5053183;28;20432;-76
2023/08/14 05:50:35;;;;;;;3.88;0.88;;;18.60;99.90;;;;;;5053221;28;20218;-73
2023/08/14 05:53:03;;;;;;;0.00;0.00;;;18.60;99.90;;;;;;5053576;28;20036;-72
2023/08/14 05:55:34;;;;;;;0.00;0.00;;;18.60;99.90;;;;;;5052898;28;20033;-73
2023/08/14 05:58:00;;;;;;;4.47;4.03;;;18.60;99.90;;;;;;5045096;28;20112;-72
2023/08/14 06:00:26;;;;;;;0.00;0.00;;;18.40;99.90;;;;;;5040408;28;20056;-72
2023/08/14 06:02:53;;;;;;;0.45;0.25;;;18.50;99.90;;;;;;5039309;28;20037;-72
2023/08/14 06:05:19;;;;;;;0.70;0.70;;;18.30;99.90;;;;;;5051814;28;20029;-73
2023/08/14 06:07:48;;;;;;;0.00;0.00;;;18.20;99.90;;;;;;5051162;28;20124;-71
2023/08/14 06:10:13;;;;;;;0.32;0.32;;;18.40;99.90;;;;;;5033462;28;20117;-72
2023/08/14 06:12:39;;;;;;;0.00;0.00;;;18.40;99.90;;;;;;5043851;28;20096;-71
2023/08/14 06:15:06;;;;;;;0.25;0.25;;;18.50;99.90;;;;;;5043698;28;20063;-80
2023/08/14 06:17:32;;;;;;;3.40;1.55;;;18.30;99.90;;;;;;5033391;28;20442;-72
2023/08/14 06:19:59;;;;;;;0.00;0.00;;;18.40;99.90;;;;;;5041805;28;20049;-72
2023/08/14 06:22:25;;;;;;;0.32;0.32;;;18.50;99.90;;;;;;5037985;28;20405;-72
2023/08/14 06:24:51;;;;;;;0.10;0.10;;;18.70;99.90;;;;;;5045086;28;20024;-73
2023/08/14 06:27:17;;;;;;;0.00;0.00;;;18.70;99.90;;;;;;5043325;28;20402;-72
2023/08/14 06:29:43;;;;;;;0.00;0.00;;;18.70;99.90;;;;;;5044929;28;20039;-72
2023/08/14 06:32:09;;;;;;;0.90;0.90;;;18.70;99.90;;;;;;5037151;28;20044;-72
2023/08/14 06:34:35;;;;;;;0.00;0.00;;;18.90;99.90;;;;;;5036135;28;20094;-81
2023/08/14 06:37:01;;;;;;;0.20;0.20;;;18.90;99.90;;;;;;5046983;28;20025;-74
2023/08/14 06:39:27;;;;;;;2.35;0.90;;;18.90;99.90;;;;;;5048874;28;20028;-71
2023/08/14 06:41:53;;;;;;;0.00;0.00;;;18.80;99.90;;;;;;5049955;28;20021;-76
2023/08/14 06:44:20;;;;;;;0.00;0.00;;;18.80;99.90;;;;;;5029547;28;20029;-76
2023/08/14 06:46:45;;;;;;;0.10;0.10;;;18.80;99.90;;;;;;5035820;28;20091;-74
2023/08/14 06:49:11;;;;;;;0.00;0.00;;;18.70;99.90;;;;;;5041944;28;20039;-75
2023/08/14 06:51:38;;;;;;;0.47;0.47;;;18.90;99.90;;;;;;5036243;28;20121;-78
2023/08/14 06:54:04;;;;;;;0.00;0.00;;;19.00;99.90;;;;;;5044035;28;20057;-74
2023/08/14 06:56:30;;;;;;;0.95;0.75;;;18.90;99.90;;;;;;5028583;28;20079;-74
2023/08/14 06:58:56;;;;;;;0.32;0.32;;;19.00;99.90;;;;;;5046650;28;20032;-72
2023/08/14 07:01:22;;;;;;;0.20;0.20;;;19.20;99.90;;;;;;5022616;28;20112;-72
2023/08/14 07:03:49;;;;;;;0.00;0.00;;;19.30;99.90;;;;;;5047336;28;20029;-72
2023/08/14 07:06:15;;;;;;;0.00;0.00;;;19.40;99.90;;;;;;5033072;28;20027;-72
2023/08/14 07:08:41;;;;;;;0.00;0.00;;;19.40;99.90;;;;;;5051079;28;20049;-72
2023/08/14 07:11:06;;;;;;;0.10;0.10;;;19.70;99.90;;;;;;5054898;28;20021;-72
2023/08/14 07:13:32;;;;;;;4.90;2.28;;;19.90;99.90;;;;;;5054584;28;20028;-73
2023/08/14 07:15:58;;;;;;;3.40;0.80;;;20.20;99.90;;;;;;5055159;28;20457;-73
2023/08/14 07:18:23;;;;;;;0.35;0.35;;;20.40;99.90;;;;;;5036625;28;20378;-72
2023/08/14 07:20:50;;;;;;;0.40;0.40;;;20.40;99.90;;;;;;5036664;28;20027;-72
2023/08/14 07:23:16;;;;;;;0.82;0.65;;;20.50;99.90;;;;;;5054669;28;20234;-72
2023/08/14 07:25:42;;;;;;;4.88;1.65;;;20.60;99.90;;;;;;5055136;28;20362;-71
2023/08/14 07:28:08;;;;;;;0.30;0.30;;;20.40;99.90;;;;;;5052464;28;20037;-71
2023/08/14 07:30:34;;;;;;;0.30;0.30;;;20.30;99.90;;;;;;5054864;28;20021;-71
2023/08/14 07:33:00;;;;;;;0.10;0.10;;;20.20;99.90;;;;;;5036975;28;20040;-72
2023/08/14 07:35:26;;;;;;;0.50;0.50;;;20.20;99.90;;;;;;5054304;28;20233;-72
2023/08/14 07:37:52;;;;;;;0.65;0.65;;;20.10;99.90;;;;;;5054438;28;20032;-72
2023/08/14 07:40:19;;;;;;;0.40;0.40;;;20.30;99.90;;;;;;5048066;28;20029;-71
2023/08/14 07:42:45;;;;;;;0.95;0.88;;;20.40;99.90;;;;;;5044258;28;20033;-72
2023/08/14 07:45:11;;;;;;;2.05;0.85;;;20.50;99.90;;;;;;5040288;28;20100;-71
2023/08/14 07:47:37;;;;;;;0.82;0.82;;;20.60;99.90;;;;;;5045321;28;20564;-72
2023/08/14 07:50:03;;;;;;;0.10;0.10;;;20.80;99.90;;;;;;5048442;28;20064;-72
2023/08/14 07:52:30;;;;;;;6.70;3.08;;;20.80;99.90;;;;;;5048780;28;20052;-72
2023/08/14 07:54:57;;;;;;;5.65;1.65;;;21.00;99.90;;;;;;5036060;28;20042;-71
2023/08/14 07:57:26;;;;;;;1.45;1.17;;;20.90;99.90;;;;;;5037045;28;20033;-72
2023/08/14 07:59:52;;;;;;;6.38;1.92;;;20.90;99.90;;;;;;5039313;28;20122;-71
2023/08/14 08:02:18;;;;;;;0.15;0.15;;;21.00;99.90;;;;;;5038837;28;20108;-71
2023/08/14 08:04:44;;;;;;;0.73;0.73;;;21.10;99.90;;;;;;5048452;28;20100;-71
2023/08/14 08:07:10;;;;;;;0.05;0.03;;;21.40;99.90;;;;;;5047255;28;20182;-72
2023/08/14 08:09:37;;;;;;;1.00;0.90;;;21.40;99.90;;;;;;5045490;28;20029;-71
2023/08/14 08:12:03;;;;;;;3.60;0.90;;;21.30;99.90;;;;;;5042748;28;20053;-71
2023/08/14 08:14:29;;;;;;;0.80;0.35;;;21.20;99.90;;;;;;5051156;28;20032;-72
2023/08/14 08:16:55;;;;;;;0.00;0.00;;;21.40;99.90;;;;;;5053603;28;20029;-78
2023/08/14 08:19:21;;;;;;;1.70;1.10;;;21.60;99.90;;;;;;5026963;28;20103;-74
2023/08/14 08:21:47;;;;;;;10.05;2.72;;;21.80;99.90;;;;;;5042259;28;20044;-78
2023/08/14 08:24:13;;;;;;;2.00;1.23;;;21.60;99.90;;;;;;5031141;28;20033;-75
2023/08/14 08:26:39;;;;;;;0.68;0.65;;;21.60;99.90;;;;;;5032799;28;20028;-73
2023/08/14 08:29:05;;;;;;;3.10;1.60;;;21.80;99.90;;;;;;5034907;28;20052;-74
2023/08/14 08:31:32;;;;;;;0.10;0.10;;;22.00;99.90;;;;;;5053146;28;20028;-74
2023/08/14 08:33:58;;;;;;;1.75;1.35;;;22.20;99.90;;;;;;5053047;28;20427;-74
2023/08/14 08:36:24;;;;;;;3.30;1.77;;;22.30;99.90;;;;;;5042279;28;20021;-75
2023/08/14 08:38:50;;;;;;;0.93;0.65;;;22.20;99.90;;;;;;5049777;28;20032;-73
2023/08/14 08:41:38;;;;;;;7.50;2.45;;;22.30;99.90;;;;;;5029160;28;20171;-73
2023/08/14 08:44:12;;;;;;;1.52;1.42;;;22.40;99.90;;;;;;5052043;28;20488;-79
2023/08/14 08:46:44;;;;;;;1.70;1.25;;;22.70;99.90;;;;;;5053300;28;20036;-82
2023/08/14 08:49:11;;;;;;;6.15;3.00;;;22.70;99.90;;;;;;5052442;28;20055;-74
2023/08/14 08:51:39;;;;;;;1.83;1.25;;;22.90;99.90;;;;;;5052323;28;20029;-74
2023/08/14 08:54:05;;;;;;;0.30;0.30;;;23.00;99.90;;;;;;5051813;28;20500;-72
2023/08/14 08:56:32;;;;;;;0.55;0.55;;;23.00;99.90;;;;;;5044206;28;20071;-74
2023/08/14 08:58:59;;;;;;;1.95;0.65;;;23.20;99.90;;;;;;5039154;28;20029;-75
2023/08/14 09:01:25;;;;;;;3.95;0.63;;;23.20;99.90;;;;;;5051976;28;20119;-72
2023/08/14 09:03:51;;;;;;;7.75;1.60;;;23.50;99.90;;;;;;5051297;28;20037;-73
2023/08/14 09:06:17;;;;;;;0.70;0.70;;;23.50;99.90;;;;;;5051655;28;20078;-72
2023/08/14 09:08:43;;;;;;;2.83;0.32;;;23.40;99.90;;;;;;5047744;28;20069;-76
2023/08/14 09:11:09;;;;;;;1.25;0.65;;;23.60;99.90;;;;;;5044338;28;20025;-72
2023/08/14 09:13:35;;;;;;;0.20;0.20;;;23.60;99.90;;;;;;5052597;28;20504;-71
2023/08/14 09:16:01;;;;;;;0.30;0.10;;;23.40;99.90;;;;;;5050137;28;20017;-72
2023/08/14 09:18:27;;;;;;;0.57;0.57;;;23.60;99.90;;;;;;5048609;28;20079;-80
2023/08/14 09:20:54;;;;;;;1.33;0.80;;;23.80;99.90;;;;;;5051956;28;20029;-72
2023/08/14 09:23:20;;;;;;;0.05;0.05;;;23.60;99.90;;;;;;5048968;28;20041;-79
2023/08/14 09:25:46;;;;;;;0.10;0.10;;;23.50;99.90;;;;;;5051673;28;20493;-73
2023/08/14 09:28:13;;;;;;;2.33;0.75;;;23.70;99.90;;;;;;5047198;28;20037;-72
2023/08/14 09:30:40;;;;;;;0.10;0.05;;;23.80;99.90;;;;;;5049792;28;20047;-79
2023/08/14 09:33:11;;;;;;;0.40;0.40;;;23.90;99.90;;;;;;5050651;28;20485;-77
2023/08/14 09:35:39;;;;;;;0.22;0.22;;;24.10;99.90;;;;;;5052479;28;20159;-73
2023/08/14 09:38:05;;;;;;;0.38;0.38;;;24.30;99.90;;;;;;5052588;28;20028;-79
2023/08/14 09:40:32;;;;;;;0.47;0.38;;;24.10;99.90;;;;;;5052324;28;20032;-73
2023/08/14 09:42:58;;;;;;;0.00;0.00;;;24.30;99.90;;;;;;5052594;28;20017;-75
2023/08/14 09:45:27;;;;;;;0.52;0.52;;;24.60;99.90;;;;;;5048095;28;20040;-72
2023/08/14 09:47:59;;;;;;;0.13;0.13;;;24.50;99.90;;;;;;5050532;28;20478;-76
2023/08/14 09:50:28;;;;;;;0.32;0.30;;;24.60;99.90;;;;;;5052139;28;20035;-73
2023/08/14 09:52:58;;;;;;;3.25;0.88;;;24.60;99.90;;;;;;5042837;28;20033;-72
2023/08/14 09:55:28;;;;;;;17.13;0.25;;;24.50;99.90;;;;;;5052170;28;20029;-72
2023/08/14 09:57:56;;;;;;;2.40;0.43;;;24.50;99.90;;;;;;5033416;28;20462;-72
2023/08/14 10:00:26;;;;;;;0.20;0.20;;;24.60;99.90;;;;;;5051156;28;20040;-72
2023/08/14 10:02:54;;;;;;;0.93;0.50;;;24.50;99.50;;;;;;5052137;28;20127;-77
2023/08/14 10:05:27;;;;;;;1.20;0.82;;;24.50;99.90;;;;;;5116136;27;19918;-71
2023/08/14 10:07:54;;;;;;;0.15;0.13;;;24.60;99.90;;;;;;5101810;28;20239;-72
2023/08/14 10:10:25;;;;;;;0.00;0.00;;;24.70;99.90;;;;;;5107830;28;20024;-74
2023/08/14 10:12:56;;;;;;;1.10;0.47;;;24.60;99.90;;;;;;5106810;28;20016;-73
2023/08/14 10:15:27;;;;;;;0.13;0.13;;;24.50;99.90;;;;;;5107103;28;20035;-75
2023/08/14 10:18:03;;;;;;;0.10;0.10;;;24.80;99.90;;;;;;5091014;28;20023;-77
2023/08/14 10:20:33;;;;;;;0.10;0.10;;;25.00;99.70;;;;;;5100735;28;20661;-72
2023/08/14 10:23:00;;;;;;;0.65;0.57;;;25.30;99.50;;;;;;5106863;28;20027;-72
2023/08/14 10:25:27;;;;;;;0.10;0.10;;;25.50;98.90;;;;;;5106354;28;20372;-76
2023/08/14 10:27:53;;;;;;;3.15;1.17;;;25.60;98.40;;;;;;5106771;28;20111;-78
2023/08/14 10:30:23;;;;;;;1.45;0.90;;;25.00;97.70;;;;;;5106645;28;20107;-75
2023/08/14 10:32:50;;;;;;;0.77;0.52;;;24.80;98.30;;;;;;5091006;28;20075;-72
2023/08/14 10:35:16;;;;;;;0.00;0.00;;;24.80;99.20;;;;;;5095972;28;20039;-74
2023/08/14 10:37:43;;;;;;;1.83;0.15;;;25.10;98.80;;;;;;5092425;28;20074;-72
2023/08/14 10:40:14;;;;;;;0.00;0.00;;;25.20;98.60;;;;;;5083710;28;20135;-72
2023/08/14 10:42:47;;;;;;;1.95;1.35;;;25.70;98.40;;;;;;5094357;28;20376;-75
2023/08/14 10:45:27;;;;;;;0.45;0.45;;;26.10;97.90;;;;;;5086736;28;20028;-72
2023/08/14 10:47:58;;;;;;;0.70;0.55;;;26.10;97.40;;;;;;5088441;28;20020;-74
2023/08/14 10:50:27;;;;;;;0.38;0.17;;;25.60;97.10;;;;;;5091372;28;20016;-74
2023/08/14 10:52:55;;;;;;;0.85;0.10;;;25.80;97.40;;;;;;5104982;28;20077;-73
2023/08/14 10:55:45;;;;;;;4.85;0.70;;;26.20;97.30;;;;;;5099777;28;20027;-72
2023/08/14 10:58:29;;;;;;;0.45;0.45;;;26.00;97.40;;;;;;5098398;28;20025;-72
2023/08/14 11:00:55;;;;;;;0.25;0.25;;;25.80;97.10;;;;;;5076196;28;20028;-72
2023/08/14 11:03:22;;;;;;;16.10;1.85;;;25.80;97.30;;;;;;5100169;28;20040;-73
2023/08/14 11:05:48;;;;;;;0.70;0.20;;;25.30;97.30;;;;;;5108163;28;20521;-71
2023/08/14 11:08:14;;;;;;;0.10;0.10;;;25.50;98.20;;;;;;5108057;28;20023;-71
2023/08/14 11:10:42;;;;;;;0.08;0.08;;;25.60;97.30;;;;;;5108238;28;20092;-72
2023/08/14 11:13:09;;;;;;;0.15;0.15;;;25.70;97.60;;;;;;5107510;28;20019;-72
2023/08/14 11:15:39;;;;;;;3.70;1.00;;;26.30;96.60;;;;;;5098930;28;20028;-72
2023/08/14 11:18:09;;;;;;;0.63;0.60;;;25.80;97.00;;;;;;5081298;28;20029;-75
2023/08/14 11:20:37;;;;;;;3.20;0.57;;;26.40;97.30;;;;;;5059030;28;20526;-75
2023/08/14 11:23:04;;;;;;;8.57;0.50;;;26.40;96.20;;;;;;5082469;28;20086;-72
2023/08/14 11:25:31;;;;;;;0.47;0.28;;;26.40;96.30;;;;;;5073715;28;20048;-74
2023/08/14 11:27:57;;;;;;;0.10;0.10;;;26.20;96.70;;;;;;5074490;28;20099;-75
2023/08/14 11:30:24;;;;;;;0.40;0.20;;;26.50;96.50;;;;;;5075247;28;20103;-74
2023/08/14 11:32:51;;;;;;;2.88;0.60;;;26.90;96.00;;;;;;5073110;28;20407;-73
2023/08/14 11:35:18;;;;;;;0.40;0.32;;;26.90;95.60;;;;;;5075044;28;20031;-72
2023/08/14 11:37:46;;;;;;;0.25;0.20;;;26.60;96.30;;;;;;5074956;28;20423;-73
2023/08/14 11:40:15;;;;;;;0.10;0.10;;;27.10;96.00;;;;;;5075250;28;20498;-74
2023/08/14 11:42:42;;;;;;;4.30;0.63;;;26.90;96.10;;;;;;5074533;28;20021;-72
2023/08/14 11:45:09;;;;;;;2.10;0.65;;;27.00;95.10;;;;;;5074899;28;20075;-71
2023/08/14 11:47:37;;;;;;;0.00;0.00;;;26.70;95.70;;;;;;5074599;28;20028;-76
2023/08/14 11:50:04;;;;;;;0.52;0.52;;;27.10;95.70;;;;;;5074685;28;20040;-72
2023/08/14 11:52:31;;;;;;;0.10;0.10;;;26.50;95.70;;;;;;5081756;28;20464;-81
2023/08/14 11:54:57;;;;;;;0.77;0.50;;;27.10;96.10;;;;;;5095721;28;20503;-81
2023/08/14 11:57:31;;;;;;;0.45;0.30;;;27.60;95.20;;;;;;5094707;28;20024;-79
2023/08/14 11:59:58;;;;;;;1.35;0.63;;;27.50;95.20;;;;;;5094926;28;20027;-79
2023/08/14 12:02:25;;;;;;;0.30;0.28;;;26.70;95.70;;;;;;5095006;28;20046;-79
2023/08/14 12:05:00;;;;;;;0.43;0.43;;;27.00;95.40;;;;;;5094682;28;20157;-80
2023/08/14 12:07:27;;;;;;;0.45;0.20;;;26.80;95.30;;;;;;5094616;28;20028;-78
2023/08/14 12:09:54;;;;;;;0.90;0.32;;;26.90;96.30;;;;;;5094713;28;20038;-82
2023/08/14 12:12:20;;;;;;;1.80;0.30;;;27.40;95.60;;;;;;5094378;28;20050;-82
2023/08/14 12:14:49;;;;;;;7.68;0.70;;;28.00;95.20;;;;;;5094436;28;20059;-81
2023/08/14 12:17:18;;;;;;;1.73;0.32;;;27.60;95.00;;;;;;5094537;28;20372;-82
2023/08/14 12:19:55;;;;;;;0.20;0.20;;;27.70;94.90;;;;;;5095094;28;20039;-77
2023/08/14 12:22:22;;;;;;;0.00;0.00;;;27.80;94.30;;;;;;5094266;28;20313;-81
2023/08/14 12:24:48;;;;;;;0.13;0.13;;;27.70;95.00;;;;;;5093371;28;20099;-81
2023/08/14 12:27:21;;;;;;;0.10;0.10;;;27.50;94.60;;;;;;5078839;28;20402;-78
2023/08/14 12:29:47;;;;;;;0.77;0.32;;;28.10;93.90;;;;;;5073792;28;20031;-82
2023/08/14 12:32:14;;;;;;;1.23;0.98;;;28.30;93.70;;;;;;5073937;28;20032;-82
2023/08/14 12:34:40;;;;;;;0.40;0.20;;;28.50;93.40;;;;;;5073977;28;20056;-77
2023/08/14 12:37:07;;;;;;;0.40;0.40;;;28.50;93.80;;;;;;5074104;28;20500;-81
2023/08/14 12:39:33;;;;;;;0.00;0.00;;;28.30;93.50;;;;;;5073667;28;20546;-81
2023/08/14 12:42:00;;;;;;;8.23;0.85;;;28.80;93.80;;;;;;5073844;28;20484;-82
2023/08/14 12:44:27;;;;;;;6.38;1.23;;;29.30;93.10;;;;;;5071677;28;20036;-80
2023/08/14 12:46:53;;;;;;;3.55;0.73;;;28.90;93.00;;;;;;5072228;28;20021;-82